Time;durP1;ratioP1;P1;durP2;ratioP2;P2;SDS_P1;SDS_P2;PMS_P1;PMS_P2;Temp;Humidity;BMP_temperature;BMP_pressure;BME280_temperature;BME280_humidity;BME280_pressure;Samples;Min_cycle;Max_cycle;Signal;HPM_P1;HPM_P2
2022/04/25 00:02:25;;;;;;;18.33;10.25;;;;;;;;;;6183391;23;20017;-84
2022/04/25 00:04:51;;;;;;;16.02;10.38;;;;;;;;;;6183505;23;20052;-84
2022/04/25 00:07:17;;;;;;;17.15;11.02;;;;;;;;;;6183183;23;20450;-85
2022/04/25 00:09:44;;;;;;;20.98;11.07;;;;;;;;;;6183337;23;20342;-84
2022/04/25 00:12:10;;;;;;;17.77;10.65;;;;;;;;;;6183231;23;20017;-84
2022/04/25 00:14:36;;;;;;;17.05;10.00;;;;;;;;;;6183363;23;20013;-84
2022/04/25 00:17:02;;;;;;;21.38;10.65;;;;;;;;;;6183225;23;20013;-85
2022/04/25 00:19:28;;;;;;;18.10;10.43;;;;;;;;;;6158627;23;20063;-85
2022/04/25 00:21:54;;;;;;;18.77;10.55;;;;;;;;;;6184568;23;20063;-84
2022/04/25 00:24:20;;;;;;;16.88;10.63;;;;;;;;;;6183363;23;20024;-84
2022/04/25 00:26:47;;;;;;;17.95;10.90;;;;;;;;;;6184689;23;20473;-85
2022/04/25 00:29:13;;;;;;;17.60;10.68;;;;;;;;;;6183322;23;20060;-85
2022/04/25 00:31:40;;;;;;;17.17;10.50;;;;;;;;;;6182771;23;20092;-83
2022/04/25 00:34:06;;;;;;;16.73;10.38;;;;;;;;;;6183405;23;20021;-85
2022/04/25 00:36:32;;;;;;;18.85;10.73;;;;;;;;;;6183119;23;20067;-85
2022/04/25 00:38:58;;;;;;;17.83;10.73;;;;;;;;;;6183329;23;20393;-85
2022/04/25 00:41:24;;;;;;;18.98;11.30;;;;;;;;;;6182922;23;20020;-84
2022/04/25 00:43:54;;;;;;;18.35;11.20;;;;;;;;;;6183219;23;20013;-85
2022/04/25 00:46:21;;;;;;;19.75;11.45;;;;;;;;;;6184539;23;20509;-85
2022/04/25 00:48:48;;;;;;;19.45;10.85;;;;;;;;;;6183248;23;20014;-84
2022/04/25 00:51:14;;;;;;;14.68;10.35;;;;;;;;;;6158287;23;20013;-85
2022/04/25 00:53:40;;;;;;;16.00;10.77;;;;;;;;;;6183476;23;20092;-84
2022/04/25 00:56:07;;;;;;;20.17;11.55;;;;;;;;;;6184115;23;20020;-84
2022/04/25 00:58:32;;;;;;;17.33;10.80;;;;;;;;;;6184814;23;20127;-84
2022/04/25 01:00:58;;;;;;;18.23;11.20;;;;;;;;;;6184958;23;20044;-85
2022/04/25 01:03:24;;;;;;;16.27;11.02;;;;;;;;;;6184658;23;20128;-84
2022/04/25 01:05:52;;;;;;;21.65;11.30;;;;;;;;;;6185015;23;20017;-84
2022/04/25 01:08:18;;;;;;;16.33;11.40;;;;;;;;;;6184938;23;20056;-84
2022/04/25 01:10:44;;;;;;;19.38;10.93;;;;;;;;;;6184782;23;20013;-84
2022/04/25 01:13:14;;;;;;;18.20;10.80;;;;;;;;;;6184691;23;20016;-85
2022/04/25 01:15:40;;;;;;;18.10;10.95;;;;;;;;;;6159982;23;20008;-84
2022/04/25 01:18:06;;;;;;;16.25;10.48;;;;;;;;;;6184651;23;20016;-85
2022/04/25 01:20:32;;;;;;;16.35;9.95;;;;;;;;;;6159936;23;20016;-84
2022/04/25 01:27:15;;;;;;;20.40;11.13;;;;;;;;;;6184399;23;20063;-85
2022/04/25 01:28:32;;;;;;;18.77;10.68;;;;;;;;;;6186145;23;20425;-85
2022/04/25 01:30:58;;;;;;;18.35;10.63;;;;;;;;;;6184531;23;20521;-84
2022/04/25 01:33:24;;;;;;;17.05;10.25;;;;;;;;;;6184388;23;20016;-85
2022/04/25 01:35:50;;;;;;;20.58;10.57;;;;;;;;;;6184619;23;20053;-84
2022/04/25 01:38:16;;;;;;;17.80;10.77;;;;;;;;;;6159556;23;20052;-84
2022/04/25 01:40:42;;;;;;;15.93;9.80;;;;;;;;;;6184595;23;20049;-85
2022/04/25 01:43:08;;;;;;;17.83;9.80;;;;;;;;;;6184196;23;20316;-85
2022/04/25 01:45:34;;;;;;;17.70;10.98;;;;;;;;;;6184545;23;20013;-84
2022/04/25 01:48:00;;;;;;;16.17;10.05;;;;;;;;;;6184480;23;20080;-85
2022/04/25 01:50:26;;;;;;;21.27;10.77;;;;;;;;;;6184399;23;20123;-84
2022/04/25 01:52:52;;;;;;;18.17;9.88;;;;;;;;;;6184341;23;20013;-84
2022/04/25 01:55:18;;;;;;;16.15;9.98;;;;;;;;;;6184599;23;20091;-84
2022/04/25 01:57:44;;;;;;;17.67;10.18;;;;;;;;;;6184202;23;20025;-85
2022/04/25 02:00:10;;;;;;;17.77;9.50;;;;;;;;;;6184385;23;20073;-85
2022/04/25 02:02:36;;;;;;;17.98;10.05;;;;;;;;;;6184122;23;20013;-85
2022/04/25 02:05:04;;;;;;;18.73;9.35;;;;;;;;;;6184357;23;20044;-85
2022/04/25 02:07:30;;;;;;;18.42;9.05;;;;;;;;;;6183785;23;20060;-84
2022/04/25 02:09:56;;;;;;;18.90;9.63;;;;;;;;;;6184324;23;20041;-85
2022/04/25 02:12:22;;;;;;;17.42;9.63;;;;;;;;;;6184102;23;20103;-84
2022/04/25 02:14:48;;;;;;;14.82;8.73;;;;;;;;;;6184244;23;20012;-85
2022/04/25 02:17:15;;;;;;;14.63;8.80;;;;;;;;;;6159270;23;20028;-85
2022/04/25 02:19:43;;;;;;;18.88;9.07;;;;;;;;;;6184096;23;20053;-85
2022/04/25 02:22:10;;;;;;;16.50;9.45;;;;;;;;;;6183980;23;20017;-85
2022/04/25 02:24:36;;;;;;;16.17;9.13;;;;;;;;;;6159561;23;20013;-85
2022/04/25 02:27:03;;;;;;;17.35;8.82;;;;;;;;;;6184125;23;20515;-84
2022/04/25 02:29:30;;;;;;;15.65;8.35;;;;;;;;;;6159102;23;20084;-84
2022/04/25 02:31:56;;;;;;;15.60;9.55;;;;;;;;;;6183887;23;20033;-85
2022/04/25 02:34:22;;;;;;;17.65;9.80;;;;;;;;;;6183924;23;20076;-84
2022/04/25 02:36:48;;;;;;;13.45;8.52;;;;;;;;;;6184658;23;20013;-85
2022/04/25 02:39:14;;;;;;;15.95;9.30;;;;;;;;;;6183775;23;20019;-85
2022/04/25 02:41:40;;;;;;;14.88;9.77;;;;;;;;;;6183918;23;20013;-85
2022/04/25 02:44:06;;;;;;;16.75;8.88;;;;;;;;;;6183791;23;20411;-85
2022/04/25 02:46:32;;;;;;;18.27;9.23;;;;;;;;;;6183931;23;20047;-85
2022/04/25 02:48:58;;;;;;;16.23;9.15;;;;;;;;;;6183749;23;20272;-84
2022/04/25 02:51:24;;;;;;;15.88;9.00;;;;;;;;;;6183948;23;20009;-84
2022/04/25 02:53:49;;;;;;;16.90;9.05;;;;;;;;;;6158851;23;20020;-85
2022/04/25 02:56:15;;;;;;;16.08;10.27;;;;;;;;;;6183908;23;20075;-85
2022/04/25 02:58:42;;;;;;;17.27;10.15;;;;;;;;;;6183620;23;20092;-84
2022/04/25 03:01:08;;;;;;;16.63;10.48;;;;;;;;;;6183659;23;20505;-84
2022/04/25 03:03:35;;;;;;;17.30;9.60;;;;;;;;;;6183979;23;20008;-85
2022/04/25 03:06:02;;;;;;;16.65;9.57;;;;;;;;;;6183832;23;20021;-84
2022/04/25 03:08:28;;;;;;;18.23;10.18;;;;;;;;;;6158711;23;20375;-85
2022/04/25 03:10:54;;;;;;;17.13;10.32;;;;;;;;;;6183702;23;20020;-84
2022/04/25 03:13:21;;;;;;;18.45;10.70;;;;;;;;;;6185233;23;20024;-84
2022/04/25 03:15:47;;;;;;;14.75;10.35;;;;;;;;;;6183669;23;20397;-84
2022/04/25 03:18:14;;;;;;;15.52;10.40;;;;;;;;;;6184939;23;20017;-85
2022/04/25 03:20:42;;;;;;;17.70;10.13;;;;;;;;;;6183568;23;20063;-86
2022/04/25 03:23:08;;;;;;;16.15;9.90;;;;;;;;;;6183364;23;20036;-85
2022/04/25 03:25:34;;;;;;;15.48;10.10;;;;;;;;;;6183676;23;20342;-85
2022/04/25 03:28:01;;;;;;;20.15;10.23;;;;;;;;;;6183399;23;20016;-85
2022/04/25 03:30:27;;;;;;;16.15;9.57;;;;;;;;;;6183416;23;20073;-84
2022/04/25 03:32:54;;;;;;;15.65;9.60;;;;;;;;;;6183109;23;20319;-85
2022/04/25 03:35:22;;;;;;;15.65;9.00;;;;;;;;;;6183669;23;20025;-84
2022/04/25 03:37:48;;;;;;;17.52;9.43;;;;;;;;;;6158785;23;20339;-84
2022/04/25 03:40:14;;;;;;;14.18;8.85;;;;;;;;;;6183191;23;20083;-85
2022/04/25 03:42:41;;;;;;;14.73;9.88;;;;;;;;;;6183366;23;20009;-84
2022/04/25 03:45:11;;;;;;;18.98;9.48;;;;;;;;;;6183200;23;20411;-85
2022/04/25 03:47:37;;;;;;;18.35;9.70;;;;;;;;;;6183496;23;20045;-84
2022/04/25 03:50:07;;;;;;;16.02;10.45;;;;;;;;;;6183071;23;20013;-84
2022/04/25 03:52:33;;;;;;;15.90;10.52;;;;;;;;;;6158648;23;20017;-85
2022/04/25 03:57:44;;;;;;;18.92;10.38;;;;;;;;;;6183614;23;20021;-85
2022/04/25 04:00:11;;;;;;;15.68;10.93;;;;;;;;;;6183185;23;20523;-85
2022/04/25 04:02:37;;;;;;;16.92;10.48;;;;;;;;;;6183475;23;20201;-85
2022/04/25 04:05:03;;;;;;;15.57;9.95;;;;;;;;;;6183086;23;20462;-84
2022/04/25 04:07:29;;;;;;;17.70;10.00;;;;;;;;;;6158652;23;20040;-84
2022/04/25 04:09:55;;;;;;;14.38;9.05;;;;;;;;;;6182967;23;20013;-85
2022/04/25 04:12:23;;;;;;;17.90;9.70;;;;;;;;;;6183394;23;20017;-84
2022/04/25 04:14:49;;;;;;;18.52;9.45;;;;;;;;;;6183097;23;20502;-84
2022/04/25 04:17:17;;;;;;;13.40;8.23;;;;;;;;;;6158445;23;20048;-84
2022/04/25 04:19:44;;;;;;;11.43;8.50;;;;;;;;;;6183043;23;20343;-85
2022/04/25 04:22:10;;;;;;;15.18;8.00;;;;;;;;;;6183736;23;20335;-85
2022/04/25 04:24:36;;;;;;;16.40;7.88;;;;;;;;;;6182924;23;20013;-84
2022/04/25 04:27:04;;;;;;;15.52;8.07;;;;;;;;;;6183270;23;20009;-85
2022/04/25 04:29:31;;;;;;;10.88;7.20;;;;;;;;;;6158078;23;20447;-86
2022/04/25 04:32:01;;;;;;;16.30;8.02;;;;;;;;;;6184784;23;20020;-87
2022/04/25 04:34:27;;;;;;;12.35;7.78;;;;;;;;;;6185058;23;20347;-86
2022/04/25 04:36:53;;;;;;;12.82;7.40;;;;;;;;;;6185208;23;20013;-85
2022/04/25 04:39:19;;;;;;;13.30;7.80;;;;;;;;;;6186523;23;20385;-85
2022/04/25 04:41:46;;;;;;;12.40;7.78;;;;;;;;;;6160236;23;20442;-86
2022/04/25 04:44:12;;;;;;;14.68;8.18;;;;;;;;;;6184769;23;20062;-85
2022/04/25 04:46:38;;;;;;;14.45;8.07;;;;;;;;;;6160267;23;20013;-85
2022/04/25 04:49:04;;;;;;;13.85;8.10;;;;;;;;;;6186419;23;20319;-86
2022/04/25 04:51:31;;;;;;;12.30;8.20;;;;;;;;;;6159670;23;20062;-86
2022/04/25 04:54:00;;;;;;;14.75;8.63;;;;;;;;;;6184540;23;20017;-86
2022/04/25 04:56:33;;;;;;;12.80;8.90;;;;;;;;;;6184761;23;20013;-84
2022/04/25 04:58:59;;;;;;;14.93;8.30;;;;;;;;;;6184504;23;20087;-85
2022/04/25 05:01:26;;;;;;;14.80;8.77;;;;;;;;;;6184388;23;20342;-85
2022/04/25 05:03:52;;;;;;;15.93;8.40;;;;;;;;;;6184491;23;20075;-86
2022/04/25 05:06:18;;;;;;;18.00;8.50;;;;;;;;;;6184635;23;20017;-85
2022/04/25 05:08:44;;;;;;;14.25;7.78;;;;;;;;;;6184490;23;20028;-85
2022/04/25 05:11:11;;;;;;;14.45;8.70;;;;;;;;;;6184307;23;20094;-86
2022/04/25 05:13:37;;;;;;;15.00;8.80;;;;;;;;;;6184397;23;20013;-85
2022/04/25 05:16:06;;;;;;;13.98;8.27;;;;;;;;;;6159570;23;20469;-84
2022/04/25 05:18:33;;;;;;;15.15;8.73;;;;;;;;;;6184593;23;20043;-85
2022/04/25 05:21:03;;;;;;;14.18;8.70;;;;;;;;;;6159213;23;20087;-85
2022/04/25 05:23:29;;;;;;;14.18;8.68;;;;;;;;;;6184332;23;20020;-86
2022/04/25 05:25:55;;;;;;;15.13;8.68;;;;;;;;;;6184147;23;20017;-85
2022/04/25 05:28:22;;;;;;;13.80;8.10;;;;;;;;;;6186324;23;20020;-85
2022/04/25 05:30:48;;;;;;;13.18;7.93;;;;;;;;;;6184091;23;20438;-85
2022/04/25 05:33:16;;;;;;;16.45;8.02;;;;;;;;;;6184084;23;20071;-85
2022/04/25 05:35:42;;;;;;;12.63;8.02;;;;;;;;;;6183977;23;20449;-86
2022/04/25 05:38:11;;;;;;;15.95;8.40;;;;;;;;;;6184272;23;20036;-85
2022/04/25 05:40:37;;;;;;;14.73;8.15;;;;;;;;;;6159171;23;20012;-85
2022/04/25 05:43:04;;;;;;;12.50;7.28;;;;;;;;;;6183586;23;20020;-85
2022/04/25 05:45:30;;;;;;;15.43;8.20;;;;;;;;;;6183883;23;20036;-85
2022/04/25 05:47:57;;;;;;;14.75;7.45;;;;;;;;;;6184357;23;20020;-84
2022/04/25 05:53:08;;;;;;;13.50;7.30;;;;;;;;;;6184231;23;20240;-86
2022/04/25 05:55:34;;;;;;;13.75;7.60;;;;;;;;;;6159267;23;20013;-85
2022/04/25 05:58:04;;;;;;;13.73;7.43;;;;;;;;;;6183927;23;20012;-86
2022/04/25 06:00:31;;;;;;;14.90;7.28;;;;;;;;;;6183704;23;20021;-85
2022/04/25 06:02:57;;;;;;;15.13;7.63;;;;;;;;;;6183915;23;20020;-84
2022/04/25 06:05:23;;;;;;;14.07;8.00;;;;;;;;;;6183628;23;20048;-85
2022/04/25 06:07:49;;;;;;;16.92;8.70;;;;;;;;;;6185506;23;20012;-84
2022/04/25 06:10:17;;;;;;;16.10;8.57;;;;;;;;;;6183408;23;20013;-85
2022/04/25 06:12:44;;;;;;;14.60;7.90;;;;;;;;;;6183986;23;20017;-84
2022/04/25 06:15:11;;;;;;;13.90;7.38;;;;;;;;;;6183570;23;20390;-85
2022/04/25 06:17:37;;;;;;;11.82;7.55;;;;;;;;;;6184067;23;20071;-84
2022/04/25 06:20:07;;;;;;;12.98;7.90;;;;;;;;;;6183465;23;20019;-84
2022/04/25 06:22:33;;;;;;;11.50;7.53;;;;;;;;;;6183836;23;20071;-85
2022/04/25 06:24:59;;;;;;;17.15;8.57;;;;;;;;;;6183507;23;20088;-86
2022/04/25 06:27:25;;;;;;;16.73;8.10;;;;;;;;;;6158863;23;20017;-85
2022/04/25 06:29:52;;;;;;;14.55;7.45;;;;;;;;;;6183542;23;20451;-85
2022/04/25 06:32:19;;;;;;;13.20;7.97;;;;;;;;;;6158881;23;20066;-85
2022/04/25 06:34:45;;;;;;;14.10;6.70;;;;;;;;;;6183405;23;20041;-85
2022/04/25 06:37:11;;;;;;;14.93;8.20;;;;;;;;;;6183602;23;20021;-84
2022/04/25 06:39:37;;;;;;;14.50;7.47;;;;;;;;;;6183587;23;20105;-85
2022/04/25 06:42:05;;;;;;;12.32;7.55;;;;;;;;;;6183261;23;20020;-85
2022/04/25 06:44:32;;;;;;;13.98;7.97;;;;;;;;;;6158827;23;20087;-85
2022/04/25 06:46:58;;;;;;;15.48;7.97;;;;;;;;;;6183357;23;20016;-84
2022/04/25 06:49:24;;;;;;;14.68;7.88;;;;;;;;;;6183511;23;20013;-84
2022/04/25 06:51:56;;;;;;;15.43;8.23;;;;;;;;;;6158448;23;20017;-84
2022/04/25 06:54:23;;;;;;;16.67;7.93;;;;;;;;;;6158497;23;20048;-84
2022/04/25 06:56:49;;;;;;;12.27;7.93;;;;;;;;;;6183216;23;20084;-85
2022/04/25 06:59:15;;;;;;;13.25;7.85;;;;;;;;;;6183487;23;20044;-85
2022/04/25 07:01:42;;;;;;;18.15;8.68;;;;;;;;;;6183024;23;20021;-85
2022/04/25 07:04:08;;;;;;;15.68;7.75;;;;;;;;;;6183167;23;20051;-85
2022/04/25 07:06:35;;;;;;;12.82;8.18;;;;;;;;;;6183183;23;20013;-85
2022/04/25 07:09:01;;;;;;;14.85;8.25;;;;;;;;;;6183393;23;20063;-84
2022/04/25 07:11:27;;;;;;;13.82;8.25;;;;;;;;;;6182811;23;20016;-85
2022/04/25 07:13:54;;;;;;;13.32;8.02;;;;;;;;;;6185314;23;20013;-86
2022/04/25 07:16:20;;;;;;;16.67;8.00;;;;;;;;;;6183085;23;20116;-86
2022/04/25 07:18:46;;;;;;;13.80;8.93;;;;;;;;;;6183798;23;20048;-86
2022/04/25 07:29:26;;;;;;;16.17;9.60;;;;;;;;;;6183106;23;20044;-85
2022/04/25 07:31:52;;;;;;;12.73;9.25;;;;;;;;;;6182653;23;20013;-85
2022/04/25 07:34:19;;;;;;;17.95;8.75;;;;;;;;;;6158467;23;20024;-85
2022/04/25 07:36:51;;;;;;;13.23;8.77;;;;;;;;;;6183057;23;20013;-85
2022/04/25 07:39:17;;;;;;;18.58;9.57;;;;;;;;;;6158846;23;20116;-85
2022/04/25 07:41:44;;;;;;;18.90;10.00;;;;;;;;;;6183180;23;20017;-85
2022/04/25 07:44:11;;;;;;;17.00;10.13;;;;;;;;;;6183064;23;20063;-86
2022/04/25 07:46:40;;;;;;;14.30;9.75;;;;;;;;;;6182902;23;20107;-85
2022/04/25 07:49:06;;;;;;;18.45;10.15;;;;;;;;;;6183205;23;20024;-85
2022/04/25 07:51:32;;;;;;;19.75;10.52;;;;;;;;;;6158113;23;20040;-85
2022/04/25 07:53:58;;;;;;;15.43;10.02;;;;;;;;;;6183298;23;20071;-84
2022/04/25 07:56:26;;;;;;;21.33;10.52;;;;;;;;;;6158557;23;20013;-85
2022/04/25 07:58:52;;;;;;;18.27;10.23;;;;;;;;;;6158329;23;20389;-85
2022/04/25 08:01:18;;;;;;;17.10;9.88;;;;;;;;;;6157875;23;20044;-85
2022/04/25 08:03:44;;;;;;;18.08;9.32;;;;;;;;;;6182909;23;20020;-85
2022/04/25 08:06:11;;;;;;;15.80;9.25;;;;;;;;;;6183761;23;20122;-85
2022/04/25 08:08:37;;;;;;;18.42;9.07;;;;;;;;;;6185427;23;20052;-85
2022/04/25 08:11:03;;;;;;;15.73;8.90;;;;;;;;;;6184159;23;20013;-86
2022/04/25 08:18:58;;;;;;;15.85;8.98;;;;;;;;;;6185348;23;20052;-86
2022/04/25 08:21:24;;;;;;;15.95;8.70;;;;;;;;;;6184952;23;20020;-85
2022/04/25 08:23:50;;;;;;;19.35;9.35;;;;;;;;;;6185152;23;20013;-86
2022/04/25 08:26:16;;;;;;;17.80;9.02;;;;;;;;;;6184923;23;20439;-85
2022/04/25 08:28:42;;;;;;;13.15;9.13;;;;;;;;;;6185469;23;20521;-84
2022/04/25 08:31:12;;;;;;;15.05;8.23;;;;;;;;;;6159985;23;20048;-85
2022/04/25 08:33:38;;;;;;;15.52;8.30;;;;;;;;;;6185408;23;20025;-85
2022/04/25 08:36:05;;;;;;;15.48;8.75;;;;;;;;;;6185224;23;20442;-84
2022/04/25 08:38:31;;;;;;;16.23;8.32;;;;;;;;;;6185340;23;20013;-85
2022/04/25 08:40:57;;;;;;;13.65;8.38;;;;;;;;;;6160074;23;20017;-85
2022/04/25 08:43:23;;;;;;;15.45;8.27;;;;;;;;;;6160313;23;20143;-85
2022/04/25 08:45:53;;;;;;;16.63;8.20;;;;;;;;;;6185126;23;20049;-86
2022/04/25 08:48:20;;;;;;;12.50;7.90;;;;;;;;;;6160248;23;20093;-84
2022/04/25 08:50:47;;;;;;;12.60;8.20;;;;;;;;;;6160066;23;20017;-85
2022/04/25 08:53:13;;;;;;;15.95;7.90;;;;;;;;;;6184809;23;20021;-85
2022/04/25 08:55:40;;;;;;;12.27;7.75;;;;;;;;;;6185232;23;20284;-85
2022/04/25 08:58:06;;;;;;;11.18;6.22;;;;;;;;;;6184671;23;20023;-85
2022/04/25 09:00:32;;;;;;;10.95;6.50;;;;;;;;;;6160121;23;20017;-85
2022/04/25 09:02:59;;;;;;;12.60;5.22;;;;;;;;;;6184731;23;20115;-86
2022/04/25 09:05:25;;;;;;;10.20;5.20;;;;;;;;;;6160359;23;20101;-86
2022/04/25 09:07:52;;;;;;;8.82;4.72;;;;;;;;;;6158598;23;20016;-85
2022/04/25 09:10:19;;;;;;;10.48;6.00;;;;;;;;;;6184815;23;20431;-85
2022/04/25 09:12:46;;;;;;;10.02;5.57;;;;;;;;;;6184694;23;20024;-84
2022/04/25 09:15:12;;;;;;;10.32;6.00;;;;;;;;;;6184853;23;20092;-86
2022/04/25 09:17:39;;;;;;;10.10;5.63;;;;;;;;;;6184491;23;20024;-86
2022/04/25 09:20:09;;;;;;;12.63;6.72;;;;;;;;;;6184732;23;20017;-86
2022/04/25 09:22:36;;;;;;;11.95;6.38;;;;;;;;;;6182840;23;20013;-86
2022/04/25 09:25:23;;;;;;;10.30;5.45;;;;;;;;;;6184931;23;20021;-86
2022/04/25 09:28:06;;;;;;;11.55;5.97;;;;;;;;;;6184305;23;20009;-88
2022/04/25 09:30:32;;;;;;;11.68;6.30;;;;;;;;;;6159961;23;20013;-85
2022/04/25 09:32:58;;;;;;;10.93;6.20;;;;;;;;;;6182733;23;20092;-86
2022/04/25 09:35:39;;;;;;;13.65;6.60;;;;;;;;;;6159858;23;20059;-85
2022/04/25 09:38:05;;;;;;;11.75;6.03;;;;;;;;;;6183405;23;20023;-86
2022/04/25 09:40:33;;;;;;;12.05;6.25;;;;;;;;;;6159641;23;20072;-85
2022/04/25 09:43:05;;;;;;;11.95;6.80;;;;;;;;;;6183022;23;20017;-86
2022/04/25 09:45:31;;;;;;;11.60;6.47;;;;;;;;;;6184645;23;20096;-86
2022/04/25 09:47:58;;;;;;;12.18;6.35;;;;;;;;;;6158526;23;20064;-85
2022/04/25 09:50:27;;;;;;;8.57;5.43;;;;;;;;;;6184368;23;20075;-86
2022/04/25 09:52:55;;;;;;;12.25;6.00;;;;;;;;;;6183837;23;20096;-87
2022/04/25 09:55:21;;;;;;;10.25;5.88;;;;;;;;;;6184135;23;20447;-86
2022/04/25 09:57:50;;;;;;;9.60;5.57;;;;;;;;;;6182891;23;20472;-85
2022/04/25 10:00:30;;;;;;;11.50;5.85;;;;;;;;;;6159495;23;20088;-85
2022/04/25 10:02:56;;;;;;;11.73;5.60;;;;;;;;;;6182828;23;20304;-86
2022/04/25 10:05:22;;;;;;;8.18;5.30;;;;;;;;;;6184287;23;20347;-86
2022/04/25 10:07:50;;;;;;;11.50;5.68;;;;;;;;;;6157993;23;20013;-86
2022/04/25 10:10:16;;;;;;;10.70;6.05;;;;;;;;;;6184124;23;20041;-87
2022/04/25 10:12:42;;;;;;;9.68;5.45;;;;;;;;;;6159175;23;20029;-86
2022/04/25 10:15:08;;;;;;;13.38;5.40;;;;;;;;;;6158154;23;20013;-85
2022/04/25 10:17:38;;;;;;;9.48;5.50;;;;;;;;;;6159243;23;20016;-86
2022/04/25 10:20:05;;;;;;;17.58;5.85;;;;;;;;;;6183566;23;20013;-86
2022/04/25 10:22:31;;;;;;;14.15;6.07;;;;;;;;;;6183842;23;20337;-86
2022/04/25 10:24:57;;;;;;;11.68;6.00;;;;;;;;;;6184321;23;20076;-85
2022/04/25 10:27:27;;;;;;;9.77;5.72;;;;;;;;;;6183856;23;20080;-85
2022/04/25 10:29:55;;;;;;;12.07;5.75;;;;;;;;;;6182122;23;20024;-86
2022/04/25 10:32:25;;;;;;;10.13;5.47;;;;;;;;;;6158702;23;20545;-86
2022/04/25 10:34:59;;;;;;;11.73;6.05;;;;;;;;;;6182973;23;20477;-86
2022/04/25 10:37:31;;;;;;;11.07;5.40;;;;;;;;;;6183873;23;20013;-86
2022/04/25 10:39:58;;;;;;;12.18;6.07;;;;;;;;;;6182771;23;20411;-86
2022/04/25 10:45:11;;;;;;;12.60;6.22;;;;;;;;;;6182656;23;20021;-86
2022/04/25 10:47:53;;;;;;;10.48;5.55;;;;;;;;;;6158605;23;20023;-86
2022/04/25 10:50:19;;;;;;;10.40;5.72;;;;;;;;;;6157959;23;20051;-87
2022/04/25 10:52:54;;;;;;;11.38;5.75;;;;;;;;;;6183704;23;20012;-86
2022/04/25 10:55:33;;;;;;;10.13;6.15;;;;;;;;;;6182906;23;20115;-86
2022/04/25 10:58:02;;;;;;;11.60;6.20;;;;;;;;;;6183768;23;20020;-86
2022/04/25 11:00:37;;;;;;;10.48;5.82;;;;;;;;;;6182753;23;20049;-87
2022/04/25 11:03:14;;;;;;;9.38;5.55;;;;;;;;;;6185136;23;20016;-86
2022/04/25 11:05:41;;;;;;;13.40;5.68;;;;;;;;;;6183583;23;20312;-86
2022/04/25 11:08:22;;;;;;;9.90;5.88;;;;;;;;;;6158688;23;20013;-86
2022/04/25 11:11:00;;;;;;;13.93;6.55;;;;;;;;;;6183640;23;20368;-86
2022/04/25 11:13:28;;;;;;;9.85;5.95;;;;;;;;;;6183388;23;20017;-86
2022/04/25 11:16:15;;;;;;;9.18;6.15;;;;;;;;;;6183764;23;20154;-88
2022/04/25 11:18:41;;;;;;;13.85;5.78;;;;;;;;;;6158561;23;20059;-90
2022/04/25 11:21:07;;;;;;;9.02;6.05;;;;;;;;;;6158759;23;20273;-89
2022/04/25 11:23:34;;;;;;;11.30;6.30;;;;;;;;;;6158211;23;20032;-88
2022/04/25 11:26:01;;;;;;;10.05;5.88;;;;;;;;;;6184089;23;20013;-87
2022/04/25 11:28:27;;;;;;;10.55;6.35;;;;;;;;;;6158590;23;20020;-87
2022/04/25 11:31:12;;;;;;;12.30;6.53;;;;;;;;;;6158622;23;20016;-87
2022/04/25 11:33:45;;;;;;;12.43;6.93;;;;;;;;;;6185194;23;20017;-86
2022/04/25 11:36:11;;;;;;;14.35;6.82;;;;;;;;;;6158881;23;20021;-87
2022/04/25 11:41:23;;;;;;;13.50;6.35;;;;;;;;;;6183596;23;20489;-87
2022/04/25 11:43:49;;;;;;;14.10;7.63;;;;;;;;;;6183172;23;20343;-87
2022/04/25 11:46:16;;;;;;;11.35;6.13;;;;;;;;;;6158543;23;20017;-86
2022/04/25 11:48:43;;;;;;;13.13;6.93;;;;;;;;;;6183275;23;20438;-86
2022/04/25 11:51:09;;;;;;;11.48;7.03;;;;;;;;;;6182020;23;20013;-87
2022/04/25 11:53:35;;;;;;;11.57;6.55;;;;;;;;;;6158442;23;20030;-87
2022/04/25 11:56:17;;;;;;;9.43;6.25;;;;;;;;;;6183465;23;20017;-86
2022/04/25 11:58:43;;;;;;;12.43;7.55;;;;;;;;;;6183090;23;20043;-87
2022/04/25 12:01:09;;;;;;;12.57;7.32;;;;;;;;;;6183396;23;20096;-86
2022/04/25 12:03:39;;;;;;;11.98;6.80;;;;;;;;;;6183108;23;20013;-87
2022/04/25 12:06:09;;;;;;;12.43;7.28;;;;;;;;;;6183385;23;20032;-86
2022/04/25 12:16:49;;;;;;;13.88;7.35;;;;;;;;;;6183413;23;20021;-87
2022/04/25 12:19:15;;;;;;;11.93;7.13;;;;;;;;;;6158251;23;20024;-87
2022/04/25 12:21:47;;;;;;;11.10;6.78;;;;;;;;;;6183251;23;20081;-87
2022/04/25 12:24:21;;;;;;;11.00;7.22;;;;;;;;;;6183032;23;20017;-87
2022/04/25 12:26:47;;;;;;;10.85;6.95;;;;;;;;;;6158236;23;20013;-86
2022/04/25 12:29:13;;;;;;;11.15;7.00;;;;;;;;;;6182913;23;20394;-87
2022/04/25 12:31:49;;;;;;;11.38;7.25;;;;;;;;;;6182967;23;20016;-86
2022/04/25 12:34:17;;;;;;;10.80;7.20;;;;;;;;;;6153426;23;20024;-87
2022/04/25 12:36:56;;;;;;;9.85;6.55;;;;;;;;;;6183220;23;20016;-86
2022/04/25 12:39:24;;;;;;;9.23;6.60;;;;;;;;;;6182968;23;20425;-86
2022/04/25 12:41:54;;;;;;;11.90;7.00;;;;;;;;;;6158486;23;20312;-88
2022/04/25 12:44:21;;;;;;;12.10;5.60;;;;;;;;;;6182878;23;20017;-86
2022/04/25 12:46:46;;;;;;;8.85;6.15;;;;;;;;;;6183258;23;20049;-87
2022/04/25 12:49:14;;;;;;;10.93;6.65;;;;;;;;;;6182949;23;20020;-87
2022/04/25 12:51:46;;;;;;;14.07;6.25;;;;;;;;;;6183805;23;20013;-87
2022/04/25 12:54:23;;;;;;;9.43;6.22;;;;;;;;;;6184853;23;20017;-87
2022/04/25 12:56:50;;;;;;;12.88;6.32;;;;;;;;;;6185060;23;20013;-86
2022/04/25 12:59:29;;;;;;;10.20;6.00;;;;;;;;;;6184773;23;20021;-87
2022/04/25 13:02:00;;;;;;;11.93;6.22;;;;;;;;;;6184990;23;20013;-86
2022/04/25 13:04:26;;;;;;;9.20;5.38;;;;;;;;;;6159550;23;20013;-86
2022/04/25 13:06:52;;;;;;;11.38;5.75;;;;;;;;;;6184987;23;20504;-88
2022/04/25 13:09:18;;;;;;;11.23;5.97;;;;;;;;;;6184208;23;20016;-87
2022/04/25 13:11:44;;;;;;;11.85;6.20;;;;;;;;;;6183517;23;20244;-86
2022/04/25 13:14:11;;;;;;;12.95;5.78;;;;;;;;;;6184592;23;20351;-86
2022/04/25 13:16:37;;;;;;;9.82;6.07;;;;;;;;;;6160101;23;20024;-86
2022/04/25 13:19:03;;;;;;;9.85;6.38;;;;;;;;;;6159885;23;20017;-89
2022/04/25 13:21:29;;;;;;;11.75;5.80;;;;;;;;;;6184765;23;20017;-87
2022/04/25 13:23:55;;;;;;;11.98;6.18;;;;;;;;;;6159631;23;20025;-87
2022/04/25 13:26:22;;;;;;;9.38;5.53;;;;;;;;;;6184828;23;20067;-88
2022/04/25 13:28:48;;;;;;;12.52;6.18;;;;;;;;;;6185135;23;20386;-87
2022/04/25 13:31:14;;;;;;;12.77;6.35;;;;;;;;;;6160093;23;20021;-87
2022/04/25 13:33:40;;;;;;;10.82;6.45;;;;;;;;;;6185269;23;20374;-87
2022/04/25 13:36:06;;;;;;;11.68;6.40;;;;;;;;;;6184363;23;20013;-88
2022/04/25 13:38:33;;;;;;;13.52;6.22;;;;;;;;;;6159908;23;20463;-87
2022/04/25 13:41:00;;;;;;;12.25;6.32;;;;;;;;;;6184261;23;20017;-87
2022/04/25 13:43:26;;;;;;;11.70;6.85;;;;;;;;;;6157828;23;20016;-87
2022/04/25 13:45:54;;;;;;;11.82;6.30;;;;;;;;;;6184362;23;20083;-87
2022/04/25 13:48:20;;;;;;;12.98;6.57;;;;;;;;;;6183994;23;20053;-87
2022/04/25 13:50:46;;;;;;;11.93;6.80;;;;;;;;;;6159497;23;20443;-87
2022/04/25 13:53:12;;;;;;;10.52;6.20;;;;;;;;;;6184380;23;20103;-86
2022/04/25 13:55:39;;;;;;;10.45;5.85;;;;;;;;;;6184213;23;20017;-87
2022/04/25 13:58:06;;;;;;;10.32;6.13;;;;;;;;;;6182964;23;20035;-87
2022/04/25 14:00:32;;;;;;;13.98;6.65;;;;;;;;;;6184060;23;20021;-86
2022/04/25 14:03:11;;;;;;;10.27;6.63;;;;;;;;;;6182718;23;20013;-87
2022/04/25 14:05:40;;;;;;;10.88;6.50;;;;;;;;;;6184956;23;20016;-88
2022/04/25 14:08:07;;;;;;;12.73;6.30;;;;;;;;;;6184193;23;20017;-88
2022/04/25 14:10:33;;;;;;;12.00;7.13;;;;;;;;;;6159683;23;20040;-86
2022/04/25 14:12:59;;;;;;;11.43;6.63;;;;;;;;;;6158112;23;20021;-87
2022/04/25 14:15:25;;;;;;;9.02;6.40;;;;;;;;;;6183994;23;20036;-86
2022/04/25 14:17:51;;;;;;;10.02;6.25;;;;;;;;;;6183033;23;20016;-86
2022/04/25 14:20:17;;;;;;;12.05;7.25;;;;;;;;;;6183792;23;20505;-87
2022/04/25 14:22:43;;;;;;;12.80;7.10;;;;;;;;;;6184171;23;20096;-88
2022/04/25 14:25:09;;;;;;;10.77;6.50;;;;;;;;;;6157932;23;20096;-87
2022/04/25 14:27:38;;;;;;;10.32;6.13;;;;;;;;;;6184334;23;20040;-87
2022/04/25 14:30:05;;;;;;;9.40;6.63;;;;;;;;;;6182641;23;20371;-86
2022/04/25 14:32:32;;;;;;;10.93;6.82;;;;;;;;;;6158904;23;20013;-86
2022/04/25 14:34:58;;;;;;;10.48;6.47;;;;;;;;;;6157950;23;20013;-87
2022/04/25 14:37:24;;;;;;;11.07;7.20;;;;;;;;;;6134588;23;20143;-86
2022/04/25 14:39:50;;;;;;;11.13;6.68;;;;;;;;;;6180271;23;20060;-87
2022/04/25 14:42:16;;;;;;;10.68;6.68;;;;;;;;;;6184074;23;20016;-86
2022/04/25 14:44:42;;;;;;;10.80;6.50;;;;;;;;;;6181342;23;20020;-88
2022/04/25 14:47:09;;;;;;;10.70;6.97;;;;;;;;;;6159257;23;20083;-87
2022/04/25 14:55:04;;;;;;;10.75;7.30;;;;;;;;;;6181684;23;20017;-86
2022/04/25 14:57:30;;;;;;;13.07;7.53;;;;;;;;;;6159118;23;20027;-87
2022/04/25 14:59:56;;;;;;;11.98;7.22;;;;;;;;;;6182171;23;20051;-87
2022/04/25 15:02:22;;;;;;;10.48;6.65;;;;;;;;;;6183929;23;20024;-87
2022/04/25 15:04:48;;;;;;;10.63;6.45;;;;;;;;;;6182467;23;20013;-88
2022/04/25 15:07:14;;;;;;;10.38;6.35;;;;;;;;;;6159071;23;20422;-86
2022/04/25 15:09:42;;;;;;;10.05;7.10;;;;;;;;;;6183492;23;20063;-87
2022/04/25 15:12:09;;;;;;;14.13;7.15;;;;;;;;;;6183697;23;20009;-88